createdAt,value
2018-10-07T00:00:28.565Z,63.20
2018-10-07T00:01:28.577Z,62.50
2018-10-07T00:02:28.598Z,65.00
2018-10-07T00:03:28.618Z,63.30
2018-10-07T00:04:28.638Z,65.00
2018-10-07T00:05:28.662Z,65.40
2018-10-07T00:06:28.680Z,65.90
2018-10-07T00:07:28.697Z,65.80
2018-10-07T00:08:28.718Z,65.00
2018-10-07T00:09:28.738Z,65.80
2018-10-07T00:10:28.759Z,68.40
2018-10-07T00:11:28.782Z,66.60
2018-10-07T00:12:28.801Z,65.20
2018-10-07T00:13:28.821Z,66.70
2018-10-07T00:14:28.846Z,70.10
2018-10-07T00:15:28.865Z,68.60
2018-10-07T00:16:28.881Z,69.00
2018-10-07T00:17:28.904Z,67.10
2018-10-07T00:18:28.925Z,68.00
2018-10-07T00:19:28.945Z,69.40
2018-10-07T00:20:28.965Z,70.80
2018-10-07T00:21:28.986Z,69.50
2018-10-07T00:22:29.004Z,72.20
2018-10-07T00:23:29.071Z,71.10
2018-10-07T00:24:29.047Z,68.20
2018-10-07T00:25:29.064Z,68.70
2018-10-07T00:26:29.087Z,70.80
2018-10-07T00:27:29.106Z,68.10
2018-10-07T00:28:29.125Z,68.80
2018-10-07T00:29:29.148Z,69.30
2018-10-07T00:30:29.167Z,69.80
2018-10-07T00:31:29.186Z,68.20
2018-10-07T00:32:29.208Z,66.80
2018-10-07T00:33:29.230Z,67.90
2018-10-07T00:34:29.248Z,69.10
2018-10-07T00:35:29.269Z,67.50
2018-10-07T00:36:29.287Z,68.50
2018-10-07T00:37:29.310Z,66.00
2018-10-07T00:38:29.330Z,65.00
2018-10-07T00:39:29.351Z,66.70
2018-10-07T00:40:29.368Z,65.90
2018-10-07T00:41:29.391Z,63.00
2018-10-07T00:42:29.410Z,62.10
2018-10-07T00:43:29.433Z,64.90
2018-10-07T00:44:29.449Z,64.00
2018-10-07T00:45:29.473Z,64.00
2018-10-07T00:46:29.494Z,62.40
2018-10-07T00:47:29.512Z,66.40
2018-10-07T00:48:29.531Z,62.80
2018-10-07T00:49:29.555Z,65.30
2018-10-07T00:50:29.573Z,62.90
2018-10-07T00:51:29.591Z,62.60
2018-10-07T00:52:29.615Z,62.80
2018-10-07T00:53:29.634Z,64.50
2018-10-07T00:54:29.656Z,62.50
2018-10-07T00:55:29.675Z,65.20
2018-10-07T00:56:29.697Z,61.80
2018-10-07T00:57:29.714Z,62.70
2018-10-07T00:58:29.740Z,63.70
2018-10-07T00:59:29.769Z,61.30
2018-10-07T01:00:29.777Z,61.30
2018-10-07T01:01:29.796Z,61.00
2018-10-07T01:02:29.815Z,64.20
2018-10-07T01:03:29.837Z,61.40
2018-10-07T01:04:29.859Z,63.90
2018-10-07T01:05:29.879Z,62.70
2018-10-07T01:06:29.898Z,62.60
2018-10-07T01:07:29.921Z,61.10
2018-10-07T01:08:29.940Z,63.80
2018-10-07T01:09:29.957Z,60.20
2018-10-07T01:10:29.978Z,63.70
2018-10-07T01:11:30.002Z,64.00
2018-10-07T01:12:30.020Z,60.40
2018-10-07T01:13:30.041Z,62.00
2018-10-07T01:14:30.061Z,59.20
2018-10-07T01:15:30.081Z,59.80
2018-10-07T01:16:30.098Z,60.60
2018-10-07T01:17:30.123Z,59.70
2018-10-07T01:18:30.140Z,59.00
2018-10-07T01:19:30.162Z,58.20
2018-10-07T01:20:30.182Z,57.80
2018-10-07T01:21:30.206Z,58.50
2018-10-07T01:22:30.224Z,60.30
2018-10-07T01:23:30.243Z,58.80
2018-10-07T01:24:30.265Z,57.10
2018-10-07T01:25:30.283Z,55.80
2018-10-07T01:26:30.305Z,56.50
2018-10-07T01:27:30.327Z,56.80
2018-10-07T01:28:30.342Z,56.70
2018-10-07T01:29:30.363Z,55.50
2018-10-07T01:30:30.391Z,56.60
2018-10-07T01:31:30.405Z,53.90
2018-10-07T01:32:30.425Z,55.00
2018-10-07T01:33:30.444Z,54.80
2018-10-07T01:34:30.466Z,56.10
2018-10-07T01:35:30.484Z,54.60
2018-10-07T01:36:30.505Z,52.90
2018-10-07T01:37:30.526Z,54.40
2018-10-07T01:38:30.548Z,54.80
2018-10-07T01:39:30.569Z,56.10
2018-10-07T01:40:30.587Z,54.60
2018-10-07T01:41:30.607Z,53.60
2018-10-07T01:42:30.631Z,53.80
2018-10-07T01:43:30.650Z,50.10
2018-10-07T01:44:30.673Z,51.40
2018-10-07T01:45:30.687Z,50.60
2018-10-07T01:46:30.712Z,49.80
2018-10-07T01:47:30.728Z,49.80
2018-10-07T01:48:30.748Z,48.70
2018-10-07T01:49:30.769Z,48.40
2018-10-07T01:50:30.794Z,48.10
2018-10-07T01:51:30.812Z,47.00
2018-10-07T01:52:30.831Z,45.90
2018-10-07T01:53:30.850Z,46.20
2018-10-07T01:54:30.873Z,46.60
2018-10-07T01:55:30.891Z,44.50
2018-10-07T01:56:30.911Z,45.10
2018-10-07T01:57:30.939Z,43.80
2018-10-07T01:58:30.952Z,44.60
2018-10-07T01:59:31.053Z,42.10
2018-10-07T02:00:30.996Z,41.80
2018-10-07T02:01:31.016Z,43.30
2018-10-07T02:02:31.039Z,40.30
2018-10-07T02:03:31.056Z,39.60
2018-10-07T02:04:31.074Z,39.80
2018-10-07T02:05:31.097Z,37.40
2018-10-07T02:06:31.115Z,38.30
2018-10-07T02:07:31.135Z,36.20
2018-10-07T02:08:31.160Z,36.80
2018-10-07T02:09:31.175Z,36.20
2018-10-07T02:10:31.197Z,37.30
2018-10-07T02:11:31.218Z,35.10
2018-10-07T02:12:31.237Z,34.70
2018-10-07T02:13:31.274Z,34.60
2018-10-07T02:14:31.278Z,35.20
2018-10-07T02:15:31.297Z,32.00
2018-10-07T02:16:31.317Z,35.10
2018-10-07T02:17:31.336Z,33.60
2018-10-07T02:18:31.358Z,33.30
2018-10-07T02:19:31.379Z,32.30
2018-10-07T02:20:31.396Z,32.90
2018-10-07T02:21:31.420Z,32.40
2018-10-07T02:22:31.436Z,33.40
2018-10-07T02:23:31.458Z,31.90
2018-10-07T02:24:31.478Z,32.30
2018-10-07T02:25:31.504Z,31.90
2018-10-07T02:26:31.516Z,31.60
2018-10-07T02:27:31.537Z,32.70
2018-10-07T02:28:31.558Z,32.40
2018-10-07T02:29:31.576Z,31.50
2018-10-07T02:30:31.597Z,31.50
2018-10-07T02:31:31.616Z,32.20
2018-10-07T02:32:31.639Z,29.70
2018-10-07T02:33:31.659Z,31.40
2018-10-07T02:34:31.690Z,29.80
2018-10-07T02:35:31.703Z,29.50
2018-10-07T02:36:31.719Z,26.70
2018-10-07T02:37:31.737Z,26.10
2018-10-07T02:38:31.760Z,25.30
2018-10-07T02:39:31.778Z,25.30
2018-10-07T02:40:31.797Z,24.70
2018-10-07T02:41:31.818Z,22.50
2018-10-07T02:42:31.838Z,23.20
2018-10-07T02:43:31.857Z,20.20
2018-10-07T02:44:31.873Z,21.10
2018-10-07T02:45:31.897Z,19.50
2018-10-07T02:46:31.915Z,19.20
2018-10-07T02:47:31.932Z,18.30
2018-10-07T02:48:31.954Z,17.80
2018-10-07T02:49:31.975Z,17.10
2018-10-07T02:50:31.996Z,17.60
2018-10-07T02:51:32.014Z,15.30
2018-10-07T02:52:32.033Z,16.40
2018-10-07T02:53:32.051Z,14.90
2018-10-07T02:54:32.071Z,15.20
2018-10-07T02:55:32.091Z,15.10
2018-10-07T02:56:32.117Z,15.20
2018-10-07T02:57:32.131Z,14.40
2018-10-07T02:58:32.148Z,15.30
2018-10-07T02:59:32.167Z,14.40
2018-10-07T03:00:32.188Z,15.20
2018-10-07T03:01:32.208Z,14.60
2018-10-07T03:02:32.224Z,14.00
2018-10-07T03:03:32.246Z,14.70
2018-10-07T03:04:32.265Z,14.10
2018-10-07T03:05:32.284Z,13.40
2018-10-07T03:06:32.305Z,13.70
2018-10-07T03:07:32.326Z,13.40
2018-10-07T03:08:32.341Z,11.90
2018-10-07T03:09:32.361Z,14.00
2018-10-07T03:10:32.383Z,12.60
2018-10-07T03:11:32.398Z,13.10
2018-10-07T03:12:32.418Z,13.10
2018-10-07T03:13:32.437Z,13.60
2018-10-07T03:14:32.459Z,13.80
2018-10-07T03:15:32.475Z,12.80
2018-10-07T03:16:32.495Z,14.30
2018-10-07T03:17:32.515Z,13.90
2018-10-07T03:18:32.535Z,13.40
2018-10-07T03:19:32.552Z,12.00
2018-10-07T03:20:32.580Z,11.50
2018-10-07T03:21:32.590Z,11.30
2018-10-07T03:22:32.614Z,11.30
2018-10-07T03:23:32.629Z,12.20
2018-10-07T03:24:32.647Z,12.20
2018-10-07T03:25:32.667Z,11.00
2018-10-07T03:26:32.686Z,11.50
2018-10-07T03:27:32.712Z,11.00
2018-10-07T03:28:32.725Z,12.10
2018-10-07T03:29:32.823Z,11.60
2018-10-07T03:30:32.764Z,11.00
2018-10-07T03:31:32.780Z,12.00
2018-10-07T03:32:32.799Z,10.40
2018-10-07T03:33:32.818Z,10.70
2018-10-07T03:34:32.840Z,10.70
2018-10-07T03:35:32.855Z,10.40
2018-10-07T03:36:32.876Z,9.50
2018-10-07T03:37:32.898Z,9.40
2018-10-07T03:38:32.916Z,9.20
2018-10-07T03:39:32.934Z,8.50
2018-10-07T03:40:32.952Z,7.90
2018-10-07T03:41:32.970Z,8.10
2018-10-07T03:42:32.990Z,6.50
2018-10-07T03:43:33.009Z,6.80
2018-10-07T03:44:33.075Z,6.50
2018-10-07T03:45:33.046Z,6.80
2018-10-07T03:46:33.065Z,7.00
2018-10-07T03:47:33.080Z,5.90
2018-10-07T03:48:33.101Z,5.10
2018-10-07T03:49:33.122Z,5.50
2018-10-07T03:50:33.137Z,5.60
2018-10-07T03:51:33.155Z,5.40
2018-10-07T03:52:33.174Z,5.00
2018-10-07T03:53:33.196Z,4.70
2018-10-07T03:54:33.212Z,5.10
2018-10-07T03:55:33.230Z,4.40
2018-10-07T03:56:33.250Z,5.20
2018-10-07T03:57:33.270Z,5.20
2018-10-07T03:58:33.289Z,4.80
2018-10-07T03:59:33.307Z,4.60
2018-10-07T04:00:33.323Z,5.30
2018-10-07T04:01:33.344Z,4.90
2018-10-07T04:02:33.361Z,5.20
2018-10-07T04:03:33.379Z,4.80
2018-10-07T04:04:33.400Z,5.00
2018-10-07T04:05:33.420Z,5.40
2018-10-07T04:06:33.437Z,5.60
2018-10-07T04:07:33.454Z,5.90
2018-10-07T04:08:33.472Z,5.40
2018-10-07T04:09:33.492Z,5.80
2018-10-07T04:10:33.509Z,5.20
2018-10-07T04:11:33.528Z,5.80
2018-10-07T04:12:33.545Z,5.30
2018-10-07T04:13:33.564Z,5.60
2018-10-07T04:14:33.583Z,5.40
2018-10-07T04:15:33.605Z,5.10
2018-10-07T04:16:33.626Z,4.50
2018-10-07T04:17:33.641Z,4.50
2018-10-07T04:18:33.661Z,4.50
2018-10-07T04:19:33.675Z,4.80
2018-10-07T04:20:33.700Z,4.30
2018-10-07T04:21:33.715Z,4.00
2018-10-07T04:22:33.731Z,4.20
2018-10-07T04:23:33.748Z,4.20
2018-10-07T04:24:33.767Z,3.60
2018-10-07T04:25:33.786Z,3.40
2018-10-07T04:26:33.805Z,3.60
2018-10-07T04:27:33.830Z,3.30
2018-10-07T04:28:33.845Z,3.20
2018-10-07T04:29:33.859Z,3.50
2018-10-07T04:30:33.879Z,3.00
2018-10-07T04:31:33.901Z,3.70
2018-10-07T04:32:33.914Z,3.90
2018-10-07T04:33:33.933Z,2.90
2018-10-07T04:34:33.952Z,3.00
2018-10-07T04:35:33.970Z,3.00
2018-10-07T04:36:33.989Z,3.00
2018-10-07T04:37:34.007Z,2.80
2018-10-07T04:38:34.028Z,2.60
2018-10-07T04:39:34.044Z,3.70
2018-10-07T04:40:34.065Z,3.30
2018-10-07T04:41:34.082Z,2.60
2018-10-07T04:42:34.099Z,2.20
2018-10-07T04:43:34.119Z,2.30
2018-10-07T04:44:34.135Z,2.60
2018-10-07T04:45:34.158Z,2.70
2018-10-07T04:46:34.173Z,2.70
2018-10-07T04:47:34.197Z,2.60
2018-10-07T04:48:34.209Z,2.90
2018-10-07T04:49:34.228Z,2.80
2018-10-07T04:50:34.246Z,3.00
2018-10-07T04:51:34.266Z,3.10
2018-10-07T04:52:34.285Z,2.40
2018-10-07T04:53:34.302Z,2.70
2018-10-07T04:54:34.320Z,2.80
2018-10-07T04:55:34.336Z,2.40
2018-10-07T04:56:34.355Z,2.60
2018-10-07T04:57:34.374Z,2.90
2018-10-07T04:58:34.395Z,2.20
2018-10-07T04:59:34.413Z,3.00
2018-10-07T05:00:34.428Z,2.80
2018-10-07T05:01:34.447Z,2.50
2018-10-07T05:02:34.471Z,2.30
2018-10-07T05:03:34.487Z,2.50
2018-10-07T05:04:34.505Z,2.40
2018-10-07T05:05:34.523Z,2.80
2018-10-07T05:06:34.556Z,2.50
2018-10-07T05:07:34.560Z,2.40
2018-10-07T05:08:34.577Z,2.20
2018-10-07T05:09:34.597Z,2.30
2018-10-07T05:10:34.612Z,2.40
2018-10-07T05:11:34.633Z,2.50
2018-10-07T05:12:34.692Z,2.70
2018-10-07T05:13:34.670Z,2.20
2018-10-07T05:14:34.685Z,2.60
2018-10-07T05:15:35.005Z,2.20
2018-10-07T05:16:34.724Z,2.80
2018-10-07T05:17:34.742Z,2.70
2018-10-07T05:18:34.759Z,3.10
2018-10-07T05:19:34.779Z,2.60
2018-10-07T05:20:34.995Z,2.40
2018-10-07T05:21:34.962Z,2.40
2018-10-07T05:22:34.984Z,2.40
2018-10-07T05:23:34.852Z,2.10
2018-10-07T05:24:34.867Z,2.30
2018-10-07T05:25:34.885Z,2.50
2018-10-07T05:26:34.905Z,2.60
2018-10-07T05:27:34.922Z,2.70
2018-10-07T05:28:34.942Z,2.40
2018-10-07T05:29:34.961Z,2.40
2018-10-07T05:30:34.978Z,2.60
2018-10-07T05:31:34.993Z,2.70
2018-10-07T05:32:35.012Z,2.30
2018-10-07T05:33:35.094Z,2.30
2018-10-07T05:34:35.049Z,2.40
2018-10-07T05:35:35.069Z,2.60
2018-10-07T05:36:35.094Z,2.50
2018-10-07T05:37:35.105Z,2.20
2018-10-07T05:38:35.122Z,2.20
2018-10-07T05:39:35.142Z,2.20
2018-10-07T05:40:35.163Z,2.40
2018-10-07T05:41:35.179Z,2.50
2018-10-07T05:42:35.193Z,2.40
2018-10-07T05:43:35.214Z,2.40
2018-10-07T05:44:35.379Z,2.30
2018-10-07T05:45:35.248Z,2.50
2018-10-07T05:46:35.269Z,2.60
2018-10-07T05:47:35.287Z,2.60
2018-10-07T05:48:35.303Z,2.40
2018-10-07T05:49:35.321Z,2.30
2018-10-07T05:50:35.343Z,2.30
2018-10-07T05:51:35.357Z,2.70
2018-10-07T05:52:35.378Z,2.50
2018-10-07T05:53:35.398Z,2.60
2018-10-07T05:54:35.413Z,2.50
2018-10-07T05:55:35.499Z,2.30
2018-10-07T05:56:35.449Z,2.30
2018-10-07T05:57:35.471Z,2.20
2018-10-07T05:58:35.485Z,2.10
2018-10-07T05:59:35.506Z,2.00
2018-10-07T06:00:35.521Z,2.10
2018-10-07T06:01:35.595Z,2.40
2018-10-07T06:02:35.562Z,3.10
2018-10-07T06:03:35.581Z,2.20
2018-10-07T06:04:35.598Z,2.40
2018-10-07T06:05:35.617Z,1.90
2018-10-07T06:06:35.635Z,2.40
2018-10-07T06:07:35.652Z,2.10
2018-10-07T06:08:35.668Z,2.50
2018-10-07T06:09:35.689Z,1.90
2018-10-07T06:10:35.722Z,1.80
2018-10-07T06:11:35.725Z,1.90
2018-10-07T06:12:35.740Z,1.80
2018-10-07T06:13:35.758Z,1.40
2018-10-07T06:14:35.777Z,1.60
2018-10-07T06:15:35.795Z,1.70
2018-10-07T06:16:35.812Z,1.90
2018-10-07T06:17:35.834Z,1.50
2018-10-07T06:18:35.848Z,1.50
2018-10-07T06:19:35.866Z,1.80
2018-10-07T06:20:35.884Z,2.00
2018-10-07T06:21:35.971Z,1.60
2018-10-07T06:22:35.924Z,1.60
2018-10-07T06:23:35.941Z,1.90
2018-10-07T06:24:35.956Z,2.00
2018-10-07T06:25:35.978Z,1.90
2018-10-07T06:26:36.001Z,1.50
2018-10-07T06:27:36.011Z,1.50
2018-10-07T06:28:36.032Z,1.30
2018-10-07T06:29:36.064Z,1.40
2018-10-07T06:30:36.065Z,1.80
2018-10-07T06:31:36.083Z,1.60
2018-10-07T06:32:36.105Z,1.40
2018-10-07T06:33:36.121Z,1.30
2018-10-07T06:34:36.141Z,1.30
2018-10-07T06:35:36.155Z,1.40
2018-10-07T06:36:36.177Z,1.80
2018-10-07T06:37:36.192Z,1.70
2018-10-07T06:38:36.234Z,1.50
2018-10-07T06:39:36.231Z,1.60
2018-10-07T06:40:36.250Z,1.80
2018-10-07T06:41:36.266Z,1.50
2018-10-07T06:42:36.284Z,2.00
2018-10-07T06:43:36.301Z,1.40
2018-10-07T06:44:36.322Z,1.40
2018-10-07T06:45:36.359Z,1.60
2018-10-07T06:46:36.360Z,1.80
2018-10-07T06:47:36.374Z,1.40
2018-10-07T06:48:36.395Z,1.60
2018-10-07T06:49:36.414Z,1.70
2018-10-07T06:50:36.429Z,1.80
2018-10-07T06:51:36.449Z,1.70
2018-10-07T06:52:36.465Z,1.60
2018-10-07T06:53:36.488Z,1.30
2018-10-07T06:54:36.503Z,1.50
2018-10-07T06:55:36.520Z,1.30
2018-10-07T06:56:36.541Z,1.40
2018-10-07T06:57:36.557Z,1.30
2018-10-07T06:58:36.576Z,1.40
2018-10-07T06:59:36.661Z,1.40
2018-10-07T07:00:36.612Z,1.30
2018-10-07T07:01:36.631Z,1.50
2018-10-07T07:02:36.652Z,1.20
2018-10-07T07:03:36.666Z,1.30
2018-10-07T07:04:36.687Z,1.40
2018-10-07T07:05:36.704Z,1.30
2018-10-07T07:06:36.880Z,1.20
2018-10-07T07:07:36.740Z,1.20
2018-10-07T07:08:37.011Z,1.30
2018-10-07T07:09:36.776Z,1.30
2018-10-07T07:10:36.797Z,1.20
2018-10-07T07:11:36.814Z,1.30
2018-10-07T07:12:36.830Z,1.10
2018-10-07T07:13:36.849Z,1.30
2018-10-07T07:14:36.870Z,1.20
2018-10-07T07:15:36.884Z,1.50
2018-10-07T07:16:36.909Z,1.40
2018-10-07T07:17:36.923Z,1.50
2018-10-07T07:18:36.943Z,1.10
2018-10-07T07:19:37.019Z,1.10
2018-10-07T07:20:36.982Z,2.20
2018-10-07T07:21:36.995Z,1.30
2018-10-07T07:22:37.014Z,1.20
2018-10-07T07:23:37.036Z,1.40
2018-10-07T07:24:37.050Z,1.50
2018-10-07T07:25:37.075Z,1.30
2018-10-07T07:26:37.087Z,1.60
2018-10-07T07:27:37.105Z,1.20
2018-10-07T07:28:37.123Z,1.20
2018-10-07T07:29:37.144Z,1.40
2018-10-07T07:30:37.160Z,1.30
2018-10-07T07:31:37.180Z,1.50
2018-10-07T07:32:37.196Z,1.20
2018-10-07T07:33:37.568Z,1.10
2018-10-07T07:34:37.233Z,1.40
2018-10-07T07:35:37.253Z,1.40
2018-10-07T07:36:37.270Z,1.30
2018-10-07T07:37:37.287Z,1.40
2018-10-07T07:38:37.306Z,1.50
2018-10-07T07:39:37.326Z,1.50
2018-10-07T07:40:37.343Z,1.50
2018-10-07T07:41:37.365Z,1.40
2018-10-07T07:42:37.380Z,1.10
2018-10-07T07:43:37.396Z,1.20
2018-10-07T07:44:37.414Z,1.50
2018-10-07T07:45:37.435Z,1.70
2018-10-07T07:46:37.454Z,1.40
2018-10-07T07:47:37.472Z,1.30
2018-10-07T07:48:37.488Z,1.20
2018-10-07T07:49:37.507Z,1.20
2018-10-07T07:50:37.524Z,1.40
2018-10-07T07:51:37.544Z,1.10
2018-10-07T07:52:37.560Z,1.30
2018-10-07T07:53:37.580Z,1.40
2018-10-07T07:54:37.597Z,1.00
2018-10-07T07:55:37.615Z,1.20
2018-10-07T07:56:37.636Z,1.40
2018-10-07T07:57:37.651Z,1.40
2018-10-07T07:58:37.670Z,1.40
2018-10-07T07:59:37.690Z,1.20
2018-10-07T08:00:37.709Z,1.20
2018-10-07T08:01:37.728Z,1.10
2018-10-07T08:02:37.743Z,1.30
2018-10-07T08:03:37.764Z,1.20
2018-10-07T08:04:37.780Z,1.30
2018-10-07T08:05:37.797Z,1.20
2018-10-07T08:06:37.816Z,1.30
2018-10-07T08:07:37.834Z,1.30
2018-10-07T08:08:37.859Z,1.30
2018-10-07T08:09:37.872Z,1.10
2018-10-07T08:10:37.890Z,1.10
2018-10-07T08:11:37.911Z,1.00
2018-10-07T08:12:37.928Z,1.30
2018-10-07T08:13:37.948Z,1.10
2018-10-07T08:14:37.967Z,1.10
2018-10-07T08:15:37.987Z,1.20
2018-10-07T08:16:38.004Z,1.10
2018-10-07T08:17:38.093Z,1.40
2018-10-07T08:18:38.042Z,1.10
2018-10-07T08:19:38.058Z,1.20
2018-10-07T08:20:38.073Z,1.60
2018-10-07T08:21:38.094Z,1.20
2018-10-07T08:22:38.115Z,1.20
2018-10-07T08:23:38.146Z,1.50
2018-10-07T08:24:38.147Z,1.00
2018-10-07T08:25:38.169Z,1.10
2018-10-07T08:26:38.185Z,1.20
2018-10-07T08:27:38.205Z,1.20
2018-10-07T08:28:38.222Z,1.40
2018-10-07T08:29:38.328Z,1.20
2018-10-07T08:30:38.268Z,1.50
2018-10-07T08:31:38.279Z,1.10
2018-10-07T08:32:38.296Z,1.00
2018-10-07T08:33:38.320Z,1.00
2018-10-07T08:34:38.335Z,1.20
2018-10-07T08:35:38.352Z,1.00
2018-10-07T08:36:38.373Z,1.00
2018-10-07T08:37:38.391Z,1.40
2018-10-07T08:38:38.407Z,1.30
2018-10-07T08:39:38.426Z,1.30
2018-10-07T08:40:38.447Z,1.30
2018-10-07T08:41:38.469Z,1.30
2018-10-07T08:42:38.481Z,2.10
2018-10-07T08:43:38.506Z,1.30
2018-10-07T08:44:38.524Z,1.10
2018-10-07T08:45:38.540Z,1.50
2018-10-07T08:46:38.556Z,1.10
2018-10-07T08:47:38.575Z,1.00
2018-10-07T08:48:38.596Z,1.30
2018-10-07T08:49:38.639Z,1.40
2018-10-07T08:50:38.631Z,1.10
2018-10-07T08:51:38.652Z,1.20
2018-10-07T08:52:38.671Z,1.30
2018-10-07T08:53:38.690Z,1.50
2018-10-07T08:54:38.709Z,1.10
2018-10-07T08:55:38.730Z,1.20
2018-10-07T08:56:38.743Z,1.70
2018-10-07T08:57:38.762Z,1.30
2018-10-07T08:58:38.782Z,1.40
2018-10-07T08:59:38.799Z,1.20
2018-10-07T09:00:38.821Z,1.70
2018-10-07T09:01:38.840Z,1.30
2018-10-07T09:02:38.858Z,1.00
2018-10-07T09:03:38.875Z,1.00
2018-10-07T09:04:38.895Z,1.30
2018-10-07T09:05:38.917Z,1.30
2018-10-07T09:06:38.936Z,1.20
2018-10-07T09:07:38.961Z,1.40
2018-10-07T09:08:38.984Z,1.10
2018-10-07T09:09:38.992Z,1.10
2018-10-07T09:10:39.011Z,1.50
2018-10-07T09:11:39.032Z,1.40
2018-10-07T09:12:39.049Z,1.40
2018-10-07T09:13:39.066Z,1.20
2018-10-07T09:14:39.147Z,1.00
2018-10-07T09:15:39.104Z,1.40
2018-10-07T09:16:39.126Z,1.30
2018-10-07T09:17:39.446Z,1.10
2018-10-07T09:18:39.162Z,1.10
2018-10-07T09:19:39.181Z,1.40
2018-10-07T09:20:39.203Z,1.10
2018-10-07T09:21:39.220Z,1.40
2018-10-07T09:22:39.242Z,1.20
2018-10-07T09:23:39.262Z,1.20
2018-10-07T09:24:39.277Z,1.00
2018-10-07T09:25:39.300Z,1.20
2018-10-07T09:26:39.365Z,1.10
2018-10-07T09:27:39.492Z,1.20
2018-10-07T09:28:39.354Z,1.10
2018-10-07T09:29:39.378Z,1.10
2018-10-07T09:30:39.396Z,1.40
2018-10-07T09:31:39.415Z,1.40
2018-10-07T09:32:39.545Z,1.60
2018-10-07T09:33:39.454Z,1.50
2018-10-07T09:34:39.471Z,1.20
2018-10-07T09:35:39.493Z,1.10
2018-10-07T09:36:39.535Z,1.30
2018-10-07T09:37:39.532Z,1.20
2018-10-07T09:38:39.552Z,1.30
2018-10-07T09:39:39.604Z,1.20
2018-10-07T09:40:39.589Z,1.20
2018-10-07T09:41:39.610Z,1.70
2018-10-07T09:42:39.627Z,1.40
2018-10-07T09:43:39.646Z,1.00
2018-10-07T09:44:39.665Z,1.40
2018-10-07T09:45:39.687Z,1.10
2018-10-07T09:46:39.711Z,1.30
2018-10-07T09:47:39.724Z,1.20
2018-10-07T09:48:39.745Z,1.20
2018-10-07T09:49:39.765Z,1.50
2018-10-07T09:50:39.784Z,1.30
2018-10-07T09:51:39.802Z,1.10
2018-10-07T09:52:39.823Z,1.50
2018-10-07T09:53:39.839Z,1.40
2018-10-07T09:54:39.863Z,1.40
2018-10-07T09:55:39.882Z,1.50
2018-10-07T09:56:39.898Z,1.20
2018-10-07T09:57:39.917Z,1.40
2018-10-07T09:58:39.940Z,1.50
2018-10-07T09:59:39.959Z,1.40
2018-10-07T10:00:39.980Z,1.40
2018-10-07T10:01:39.996Z,1.20
2018-10-07T10:02:40.016Z,1.60
2018-10-07T10:03:40.038Z,1.30
2018-10-07T10:04:40.089Z,1.30
2018-10-07T10:05:40.077Z,1.40
2018-10-07T10:06:40.097Z,1.60
2018-10-07T10:07:40.115Z,1.40
2018-10-07T10:08:40.135Z,1.40
2018-10-07T10:09:40.157Z,1.30
2018-10-07T10:10:40.174Z,1.20
2018-10-07T10:11:40.196Z,1.20
2018-10-07T10:12:40.212Z,1.40
2018-10-07T10:13:40.232Z,1.60
2018-10-07T10:14:40.252Z,1.70
2018-10-07T10:15:40.270Z,1.40
2018-10-07T10:16:40.288Z,1.80
2018-10-07T10:17:40.381Z,1.80
2018-10-07T10:18:40.329Z,1.20
2018-10-07T10:19:40.384Z,1.40
2018-10-07T10:20:40.368Z,1.50
2018-10-07T10:21:40.391Z,1.40
2018-10-07T10:22:40.410Z,1.80
2018-10-07T10:23:40.429Z,1.50
2018-10-07T10:24:40.450Z,1.50
2018-10-07T10:25:40.465Z,1.70
2018-10-07T10:26:40.486Z,1.60
2018-10-07T10:27:40.508Z,1.40
2018-10-07T10:28:40.524Z,1.20
2018-10-07T10:29:40.544Z,1.60
2018-10-07T10:30:40.565Z,1.50
2018-10-07T10:31:40.595Z,1.10
2018-10-07T10:32:40.607Z,1.40
2018-10-07T10:33:40.627Z,1.70
2018-10-07T10:34:40.644Z,1.50
2018-10-07T10:35:40.666Z,1.60
2018-10-07T10:36:40.729Z,1.40
2018-10-07T10:37:40.702Z,1.30
2018-10-07T10:38:40.727Z,1.10
2018-10-07T10:39:40.784Z,1.40
2018-10-07T10:40:40.765Z,1.30
2018-10-07T10:41:40.782Z,1.20
2018-10-07T10:42:40.803Z,1.00
2018-10-07T10:43:40.823Z,1.10
2018-10-07T10:44:40.843Z,1.30
2018-10-07T10:45:40.862Z,1.20
2018-10-07T10:46:40.882Z,1.40
2018-10-07T10:47:40.902Z,1.20
2018-10-07T10:48:40.921Z,1.20
2018-10-07T10:49:40.940Z,1.30
2018-10-07T10:50:40.963Z,1.40
2018-10-07T10:51:40.978Z,1.60
2018-10-07T10:52:41.004Z,1.30
2018-10-07T10:53:41.022Z,1.20
2018-10-07T10:54:41.041Z,1.30
2018-10-07T10:55:41.057Z,1.20
2018-10-07T10:56:41.081Z,1.30
2018-10-07T10:57:41.101Z,1.50
2018-10-07T10:58:41.118Z,1.40
2018-10-07T10:59:41.141Z,1.30
2018-10-07T11:00:41.157Z,1.10
2018-10-07T11:01:41.180Z,1.30
2018-10-07T11:02:41.200Z,1.40
2018-10-07T11:03:41.219Z,1.60
2018-10-07T11:04:41.301Z,1.40
2018-10-07T11:05:41.258Z,1.30
2018-10-07T11:06:41.279Z,1.30
2018-10-07T11:07:41.299Z,1.40
2018-10-07T11:08:41.316Z,1.40
2018-10-07T11:09:41.339Z,1.40
2018-10-07T11:10:41.357Z,1.20
2018-10-07T11:11:41.380Z,1.20
2018-10-07T11:12:41.400Z,1.10
2018-10-07T11:13:41.442Z,1.20
2018-10-07T11:14:41.440Z,1.30
2018-10-07T11:15:41.477Z,1.20
2018-10-07T11:16:41.477Z,1.30
2018-10-07T11:17:41.496Z,1.30
2018-10-07T11:18:41.520Z,1.30
2018-10-07T11:19:41.535Z,1.20
2018-10-07T11:20:41.557Z,1.30
2018-10-07T11:21:41.576Z,1.40
2018-10-07T11:22:41.599Z,1.30
2018-10-07T11:23:41.620Z,1.30
2018-10-07T11:24:41.640Z,1.30
2018-10-07T11:25:41.658Z,1.20
2018-10-07T11:26:41.679Z,1.30
2018-10-07T11:27:41.700Z,1.50
2018-10-07T11:28:41.717Z,1.40
2018-10-07T11:29:41.739Z,1.20
2018-10-07T11:30:41.758Z,1.10
2018-10-07T11:31:41.775Z,1.80
2018-10-07T11:32:41.795Z,1.30
2018-10-07T11:33:41.818Z,1.40
2018-10-07T11:34:41.851Z,1.20
2018-10-07T11:35:41.857Z,1.20
2018-10-07T11:36:41.878Z,1.50
2018-10-07T11:37:41.896Z,1.60
2018-10-07T11:38:41.919Z,1.60
2018-10-07T11:39:41.938Z,1.40
2018-10-07T11:40:42.012Z,1.40
2018-10-07T11:41:41.982Z,1.40
2018-10-07T11:42:41.997Z,1.50
2018-10-07T11:43:42.016Z,1.60
2018-10-07T11:44:42.038Z,1.80
2018-10-07T11:45:42.060Z,1.60
2018-10-07T11:46:42.080Z,1.40
2018-10-07T11:47:42.097Z,1.40
2018-10-07T11:48:42.122Z,1.40
2018-10-07T11:49:42.141Z,1.60
2018-10-07T11:50:42.158Z,1.60
2018-10-07T11:51:42.179Z,1.40
2018-10-07T11:52:42.244Z,1.40
2018-10-07T11:53:42.222Z,1.60
2018-10-07T11:54:42.241Z,1.60
2018-10-07T11:55:42.259Z,1.70
2018-10-07T11:56:42.283Z,1.30
2018-10-07T11:57:42.302Z,1.80
2018-10-07T11:58:42.321Z,1.60
2018-10-07T11:59:42.342Z,1.50
2018-10-07T12:00:42.362Z,1.80
2018-10-07T12:01:42.384Z,1.90
2018-10-07T12:02:42.430Z,1.20
2018-10-07T12:03:42.424Z,1.40
2018-10-07T12:04:42.446Z,1.70
2018-10-07T12:05:42.463Z,2.20
2018-10-07T12:06:42.482Z,1.60
2018-10-07T12:07:42.502Z,1.80
2018-10-07T12:08:42.525Z,1.80
2018-10-07T12:09:42.543Z,1.60
2018-10-07T12:10:42.567Z,1.80
2018-10-07T12:11:42.583Z,1.30
2018-10-07T12:12:42.607Z,1.90
2018-10-07T12:13:42.624Z,1.60
2018-10-07T12:14:42.650Z,1.90
2018-10-07T12:15:42.666Z,1.60
2018-10-07T12:16:42.685Z,1.60
2018-10-07T12:17:42.708Z,1.60
2018-10-07T12:18:42.726Z,1.40
2018-10-07T12:19:42.748Z,1.40
2018-10-07T12:20:42.770Z,1.90
2018-10-07T12:21:42.785Z,1.60
2018-10-07T12:22:42.811Z,1.20
2018-10-07T12:23:42.827Z,1.40
2018-10-07T12:24:42.846Z,1.60
2018-10-07T12:25:42.869Z,1.60
2018-10-07T12:26:42.888Z,1.50
2018-10-07T12:27:42.910Z,1.60
2018-10-07T12:28:42.928Z,1.50
2018-10-07T12:29:42.948Z,1.60
2018-10-07T12:30:42.970Z,1.40
2018-10-07T12:31:42.991Z,1.60
2018-10-07T12:32:43.008Z,1.40
2018-10-07T12:33:43.028Z,1.30
2018-10-07T12:34:43.051Z,1.60
2018-10-07T12:35:43.071Z,1.60
2018-10-07T12:36:43.114Z,1.40
2018-10-07T12:37:43.112Z,2.20
2018-10-07T12:38:43.133Z,1.50
2018-10-07T12:39:43.153Z,1.70
2018-10-07T12:40:43.176Z,1.30
2018-10-07T12:41:43.194Z,1.80
2018-10-07T12:42:43.323Z,1.40
2018-10-07T12:43:43.233Z,1.70
2018-10-07T12:44:43.254Z,1.70
2018-10-07T12:45:43.279Z,1.50
2018-10-07T12:46:43.296Z,1.40
2018-10-07T12:47:43.313Z,1.60
2018-10-07T12:48:43.336Z,1.30
2018-10-07T12:49:43.354Z,1.50
2018-10-07T12:50:43.378Z,1.60
2018-10-07T12:51:43.394Z,2.00
2018-10-07T12:52:43.414Z,1.60
2018-10-07T12:53:43.439Z,1.80
2018-10-07T12:54:43.460Z,1.70
2018-10-07T12:55:43.478Z,1.60
2018-10-07T12:56:43.496Z,1.70
2018-10-07T12:57:43.519Z,1.60
2018-10-07T12:58:43.538Z,1.80
2018-10-07T12:59:43.559Z,1.60
2018-10-07T13:00:43.581Z,1.60
2018-10-07T13:01:43.599Z,1.50
2018-10-07T13:02:43.621Z,1.90
2018-10-07T13:03:43.653Z,1.80
2018-10-07T13:04:43.663Z,1.70
2018-10-07T13:05:43.683Z,2.50
2018-10-07T13:06:43.701Z,1.50
2018-10-07T13:07:43.770Z,1.80
2018-10-07T13:08:43.742Z,1.60
2018-10-07T13:09:43.835Z,1.60
2018-10-07T13:10:43.786Z,1.80
2018-10-07T13:11:43.803Z,1.70